Time;durP1;ratioP1;P1;durP2;ratioP2;P2;SDS_P1;SDS_P2;PMS_P1;PMS_P2;Temp;Humidity;BMP_temperature;BMP_pressure;BME280_temperature;BME280_humidity;BME280_pressure;Samples;Min_cycle;Max_cycle;Signal;HPM_P1;HPM_P2
2022/02/01 00:01:26;;;;;;;7.53;3.10;;;3.50;99.90;;;;;;5105233;28;20967;-79
2022/02/01 00:03:57;;;;;;;10.73;3.43;;;3.50;99.90;;;;;;5085696;28;20444;-80
2022/02/01 00:06:33;;;;;;;15.37;3.80;;;3.50;99.90;;;;;;5085452;28;20435;-78
2022/02/01 00:09:09;;;;;;;12.00;2.83;;;3.40;99.90;;;;;;5085214;28;20534;-78
2022/02/01 00:12:02;;;;;;;12.63;3.30;;;3.40;99.90;;;;;;5087401;28;20416;-78
2022/02/01 00:17:45;;;;;;;12.83;3.40;;;3.40;99.90;;;;;;5075014;28;20418;-78
2022/02/01 00:36:34;;;;;;;9.40;2.73;;;3.20;99.90;;;;;;5107785;28;20472;-78
2022/02/01 00:41:28;;;;;;;9.37;2.60;;;3.20;99.90;;;;;;5107104;28;20459;-78
2022/02/01 00:43:54;;;;;;;21.03;5.70;;;3.20;99.90;;;;;;5088955;28;20440;-79
2022/02/01 00:46:20;;;;;;;7.80;2.33;;;3.10;99.90;;;;;;5088301;28;20431;-79
2022/02/01 00:48:46;;;;;;;9.80;2.63;;;3.20;99.90;;;;;;5089159;28;20474;-79
2022/02/01 00:51:12;;;;;;;15.60;2.87;;;3.10;99.90;;;;;;5088698;28;20773;-77
2022/02/01 00:53:42;;;;;;;9.50;3.37;;;3.10;99.90;;;;;;5089015;28;20198;-77
2022/02/01 00:56:09;;;;;;;7.53;3.03;;;3.10;99.90;;;;;;5088144;28;20736;-79
2022/02/01 00:58:35;;;;;;;10.83;4.63;;;3.10;99.90;;;;;;5088326;28;20439;-78
2022/02/01 01:01:01;;;;;;;8.47;3.17;;;3.20;99.90;;;;;;5088253;28;20466;-79
2022/02/01 01:03:27;;;;;;;13.00;2.80;;;3.20;99.90;;;;;;5088972;28;20444;-78
2022/02/01 01:05:53;;;;;;;5.33;2.20;;;3.20;99.90;;;;;;5089959;28;20212;-79
2022/02/01 01:08:19;;;;;;;8.93;2.40;;;3.20;99.90;;;;;;5088701;28;20206;-79
2022/02/01 01:10:45;;;;;;;6.80;2.30;;;3.20;99.90;;;;;;5089222;28;20419;-79
2022/02/01 01:15:48;;;;;;;5.20;2.13;;;3.20;99.90;;;;;;5107680;28;20446;-79
2022/02/01 01:53:54;;;;;;;6.13;1.90;;;3.70;99.90;;;;;;5109761;28;20850;-79
2022/02/01 01:56:21;;;;;;;9.23;2.00;;;3.80;99.90;;;;;;5090690;28;20424;-79
2022/02/01 01:58:47;;;;;;;5.30;2.00;;;3.80;99.90;;;;;;5089935;28;20434;-79
2022/02/01 02:01:14;;;;;;;6.10;2.10;;;3.80;99.90;;;;;;5090050;28;20420;-79
2022/02/01 02:03:44;;;;;;;6.70;1.80;;;3.90;99.90;;;;;;5090742;28;20201;-80
2022/02/01 02:06:10;;;;;;;14.70;4.27;;;3.80;99.90;;;;;;5089538;28;20430;-79
2022/02/01 02:08:36;;;;;;;5.87;1.90;;;3.80;99.90;;;;;;5088707;28;20535;-79
2022/02/01 02:11:06;;;;;;;6.23;2.10;;;3.80;99.90;;;;;;5089816;28;20979;-77
2022/02/01 02:16:32;;;;;;;5.60;2.00;;;3.80;99.90;;;;;;5107328;28;20482;-79
2022/02/01 02:18:58;;;;;;;8.20;2.00;;;3.80;99.90;;;;;;5088803;28;20415;-79
2022/02/01 02:21:24;;;;;;;6.47;2.27;;;3.90;99.90;;;;;;5088363;28;20452;-79
2022/02/01 02:23:49;;;;;;;12.23;3.03;;;3.90;99.90;;;;;;5088007;28;20205;-78
2022/02/01 02:26:17;;;;;;;14.40;3.23;;;3.90;99.90;;;;;;5087796;28;20708;-79
2022/02/01 02:28:44;;;;;;;12.50;2.77;;;3.90;99.90;;;;;;5087513;28;20204;-78
2022/02/01 02:31:10;;;;;;;7.17;1.90;;;4.00;99.90;;;;;;5087012;28;20432;-79
2022/02/01 02:33:36;;;;;;;8.73;2.50;;;4.00;99.90;;;;;;5086178;28;20907;-79
2022/02/01 02:36:13;;;;;;;15.17;2.67;;;4.00;99.90;;;;;;5095340;28;20175;-79
2022/02/01 02:39:09;;;;;;;5.70;1.80;;;3.90;99.90;;;;;;5091708;28;20420;-79
2022/02/01 02:41:50;;;;;;;14.17;2.20;;;3.90;99.90;;;;;;5091488;28;20441;-79
2022/02/01 02:47:02;;;;;;;9.57;2.10;;;4.00;99.90;;;;;;5110275;28;20421;-79
2022/02/01 02:49:28;;;;;;;7.50;1.80;;;3.90;99.90;;;;;;5092361;28;20460;-80
2022/02/01 02:51:54;;;;;;;7.67;2.80;;;4.00;99.90;;;;;;5091803;28;20440;-79
2022/02/01 02:54:22;;;;;;;8.50;2.30;;;4.00;99.90;;;;;;5091398;28;20419;-79
2022/02/01 02:56:50;;;;;;;10.97;2.33;;;4.00;99.90;;;;;;5090724;28;20448;-79
2022/02/01 02:59:17;;;;;;;8.73;2.43;;;4.00;99.90;;;;;;5090355;28;20428;-79
2022/02/01 03:01:47;;;;;;;7.30;2.50;;;4.00;99.90;;;;;;5090690;28;20416;-80
2022/02/01 03:04:15;;;;;;;4.50;1.93;;;3.80;99.90;;;;;;5091045;28;20506;-80
2022/02/01 03:06:42;;;;;;;5.83;1.67;;;4.00;99.90;;;;;;5090751;28;20428;-79
2022/02/01 03:09:08;;;;;;;8.80;2.63;;;3.90;99.90;;;;;;5091352;28;20979;-79
2022/02/01 03:11:34;;;;;;;8.70;2.10;;;4.00;99.90;;;;;;5090441;28;20427;-79
2022/02/01 03:14:03;;;;;;;8.93;2.43;;;4.00;99.90;;;;;;5090543;28;20452;-79
2022/02/01 03:21:41;;;;;;;6.90;2.80;;;3.90;99.90;;;;;;5108681;28;20483;-79
2022/02/01 03:24:07;;;;;;;6.40;2.20;;;3.90;99.90;;;;;;5090664;28;20436;-79
2022/02/01 03:26:33;;;;;;;8.37;2.60;;;3.80;99.90;;;;;;5089471;28;20935;-79
2022/02/01 03:28:59;;;;;;;7.77;2.83;;;3.80;99.90;;;;;;5089029;28;20228;-78
2022/02/01 03:31:24;;;;;;;6.57;2.67;;;3.80;99.90;;;;;;5090519;28;20196;-79
2022/02/01 03:33:50;;;;;;;6.23;2.10;;;3.80;99.90;;;;;;5089486;28;20554;-78
2022/02/01 03:36:16;;;;;;;10.13;3.40;;;3.80;99.90;;;;;;5090204;28;20561;-80
2022/02/01 03:38:42;;;;;;;9.57;2.43;;;3.70;99.90;;;;;;5089713;28;20659;-79
2022/02/01 03:41:08;;;;;;;10.00;2.90;;;3.70;99.90;;;;;;5088683;28;20185;-80
2022/02/01 03:43:33;;;;;;;9.23;2.47;;;3.80;99.90;;;;;;5089345;28;20236;-80
2022/02/01 03:45:59;;;;;;;7.03;2.50;;;3.70;99.90;;;;;;5088243;28;20189;-80
2022/02/01 03:48:31;;;;;;;8.00;2.50;;;3.70;99.90;;;;;;5085595;28;20210;-80
2022/02/01 03:50:56;;;;;;;10.83;3.27;;;3.80;99.90;;;;;;5088902;28;20225;-79
2022/02/01 03:53:22;;;;;;;16.93;4.60;;;3.70;99.90;;;;;;5089181;28;20460;-79
2022/02/01 03:55:51;;;;;;;9.17;3.10;;;3.70;99.90;;;;;;5090721;28;20177;-79
2022/02/01 03:58:17;;;;;;;9.50;2.83;;;3.70;99.90;;;;;;5089794;28;20209;-79
2022/02/01 04:00:42;;;;;;;10.07;4.43;;;3.70;99.90;;;;;;5089835;28;20443;-79
2022/02/01 04:03:08;;;;;;;5.63;4.00;;;3.60;99.90;;;;;;5088879;28;20201;-80
2022/02/01 04:05:34;;;;;;;8.10;2.77;;;3.60;99.90;;;;;;5087463;28;20213;-78
2022/02/01 04:08:01;;;;;;;12.07;3.40;;;3.60;99.90;;;;;;5084257;28;20560;-79
2022/02/01 04:10:27;;;;;;;10.10;2.73;;;3.60;99.90;;;;;;5084798;28;20453;-79
2022/02/01 04:12:53;;;;;;;12.00;3.47;;;3.70;99.90;;;;;;5084922;28;20432;-78
2022/02/01 04:15:22;;;;;;;8.10;2.70;;;3.70;99.90;;;;;;5084616;28;20415;-78
2022/02/01 04:17:48;;;;;;;7.30;2.13;;;3.70;99.90;;;;;;5085322;28;20511;-79
2022/02/01 04:20:15;;;;;;;5.10;2.10;;;3.80;99.90;;;;;;5084227;28;20429;-78
2022/02/01 04:22:41;;;;;;;9.00;2.77;;;3.70;99.90;;;;;;5085480;28;20444;-79
2022/02/01 04:25:07;;;;;;;5.73;1.93;;;3.80;99.90;;;;;;5090991;28;20420;-79
2022/02/01 04:27:33;;;;;;;11.50;2.67;;;3.80;99.90;;;;;;5090763;28;20458;-79
2022/02/01 04:30:06;;;;;;;9.80;2.83;;;3.90;99.90;;;;;;5090378;28;20420;-78
2022/02/01 04:32:36;;;;;;;11.73;2.27;;;3.80;99.90;;;;;;5089602;28;20213;-79
2022/02/01 04:35:04;;;;;;;7.60;2.90;;;3.80;99.90;;;;;;5089581;28;20413;-78
2022/02/01 04:37:30;;;;;;;5.97;1.80;;;3.80;99.90;;;;;;5088970;28;20415;-79
2022/02/01 04:39:57;;;;;;;8.33;2.23;;;3.80;99.90;;;;;;5088715;28;20449;-79
2022/02/01 04:42:25;;;;;;;6.87;3.13;;;3.80;99.90;;;;;;5087721;28;20444;-78
2022/02/01 04:44:51;;;;;;;9.73;3.23;;;3.80;99.90;;;;;;5088348;28;20449;-79
2022/02/01 04:47:17;;;;;;;5.00;2.60;;;3.80;99.90;;;;;;5087350;28;20418;-79
2022/02/01 04:49:43;;;;;;;6.60;2.43;;;3.80;99.90;;;;;;5088690;28;20530;-79
2022/02/01 04:52:09;;;;;;;9.20;2.17;;;3.80;99.90;;;;;;5087299;28;20177;-79
2022/02/01 04:54:35;;;;;;;6.03;2.03;;;3.80;99.90;;;;;;5087318;28;20182;-79
2022/02/01 04:57:00;;;;;;;11.90;2.73;;;3.90;99.90;;;;;;5088049;28;20212;-80
2022/02/01 04:59:26;;;;;;;6.63;2.27;;;3.90;99.90;;;;;;5089697;28;20235;-80
2022/02/01 05:01:52;;;;;;;6.67;2.50;;;3.90;99.90;;;;;;5090800;28;20192;-78
2022/02/01 05:04:20;;;;;;;4.87;2.40;;;3.80;99.90;;;;;;5090371;28;20208;-79
2022/02/01 05:06:52;;;;;;;11.37;2.77;;;3.70;99.90;;;;;;5090821;28;20190;-80
2022/02/01 05:09:18;;;;;;;12.20;3.10;;;3.70;99.90;;;;;;5089885;28;21085;-79
2022/02/01 05:11:44;;;;;;;11.40;2.90;;;3.70;99.90;;;;;;5089544;28;20459;-79
2022/02/01 05:14:16;;;;;;;10.97;2.97;;;3.60;99.90;;;;;;5089497;28;20205;-79
2022/02/01 05:22:01;;;;;;;7.00;2.93;;;3.50;99.90;;;;;;5107493;28;20950;-78
2022/02/01 05:24:27;;;;;;;6.90;2.70;;;3.50;99.90;;;;;;5089170;28;20442;-78
2022/02/01 05:26:55;;;;;;;7.53;2.13;;;3.60;99.90;;;;;;5088347;28;20415;-79
2022/02/01 05:29:22;;;;;;;10.10;3.30;;;3.60;99.90;;;;;;5089047;28;21051;-79
2022/02/01 05:31:49;;;;;;;10.73;2.73;;;3.60;99.90;;;;;;5087273;28;20435;-80
2022/02/01 05:34:15;;;;;;;6.90;2.43;;;3.70;99.90;;;;;;5088263;28;20446;-79
2022/02/01 05:36:44;;;;;;;12.03;2.50;;;3.70;99.90;;;;;;5088114;28;20420;-79
2022/02/01 05:39:26;;;;;;;11.50;2.97;;;3.80;99.90;;;;;;5088173;28;20428;-79
2022/02/01 05:41:54;;;;;;;13.43;3.37;;;3.80;99.90;;;;;;5087847;28;20416;-78
2022/02/01 05:44:20;;;;;;;13.93;3.30;;;3.80;99.90;;;;;;5087283;28;20428;-79
2022/02/01 05:46:46;;;;;;;7.40;2.83;;;3.90;99.90;;;;;;5086679;28;20517;-79
2022/02/01 05:49:12;;;;;;;9.77;2.80;;;3.90;99.90;;;;;;5086531;28;20467;-79
2022/02/01 05:51:38;;;;;;;9.73;3.27;;;3.90;99.90;;;;;;5086789;28;20175;-78
2022/02/01 05:54:04;;;;;;;6.27;3.20;;;3.90;99.90;;;;;;5086520;28;20524;-79
2022/02/01 05:56:31;;;;;;;7.90;2.73;;;3.90;99.90;;;;;;5086890;28;20424;-79
2022/02/01 05:58:56;;;;;;;10.73;2.13;;;3.90;99.90;;;;;;5086156;28;20488;-78
2022/02/01 06:01:22;;;;;;;7.13;2.40;;;3.90;99.90;;;;;;5085949;28;20490;-79
2022/02/01 06:03:48;;;;;;;8.10;3.37;;;3.80;99.90;;;;;;5086714;28;20214;-78
2022/02/01 06:06:14;;;;;;;4.37;2.00;;;3.90;99.90;;;;;;5086072;28;20427;-79
2022/02/01 06:08:41;;;;;;;10.43;2.43;;;3.80;99.90;;;;;;5084409;28;20468;-78
2022/02/01 06:11:07;;;;;;;14.93;2.63;;;3.90;99.90;;;;;;5086662;28;20491;-78
2022/02/01 06:13:36;;;;;;;7.30;1.90;;;3.80;99.90;;;;;;5086828;28;20444;-79
2022/02/01 06:16:03;;;;;;;12.13;3.00;;;3.80;99.90;;;;;;5086386;28;20936;-78
2022/02/01 06:18:29;;;;;;;8.40;1.90;;;3.80;99.90;;;;;;5085697;28;20438;-78
2022/02/01 06:20:55;;;;;;;7.37;2.30;;;3.90;99.90;;;;;;5085648;28;20429;-78
2022/02/01 06:23:21;;;;;;;4.93;2.13;;;3.90;99.90;;;;;;5092053;22;20569;-78
2022/02/01 06:25:48;;;;;;;5.27;1.70;;;3.90;99.90;;;;;;5055973;28;20953;-78
2022/02/01 06:28:19;;;;;;;10.37;2.03;;;3.90;99.90;;;;;;5055628;28;20464;-78
2022/02/01 06:30:46;;;;;;;8.00;2.73;;;3.90;99.90;;;;;;5056071;28;20473;-78
2022/02/01 06:33:12;;;;;;;9.63;2.40;;;3.90;99.90;;;;;;5055896;28;20969;-78
2022/02/01 06:35:39;;;;;;;5.17;2.47;;;3.90;99.90;;;;;;5055973;28;20451;-78
2022/02/01 06:38:05;;;;;;;5.30;4.23;;;3.90;99.90;;;;;;5055662;28;20448;-78
2022/02/01 06:40:30;;;;;;;6.37;2.63;;;4.00;99.90;;;;;;5056312;28;20406;-78
2022/02/01 06:42:56;;;;;;;8.13;1.90;;;4.00;99.90;;;;;;5056269;28;20191;-78
2022/02/01 06:45:23;;;;;;;5.70;1.73;;;4.00;99.90;;;;;;5056299;28;20228;-78
2022/02/01 06:47:49;;;;;;;5.47;2.30;;;4.10;99.90;;;;;;5055783;28;20962;-78
2022/02/01 06:50:19;;;;;;;10.60;2.73;;;4.10;99.90;;;;;;5056826;28;21005;-78
2022/02/01 06:52:57;;;;;;;4.20;2.30;;;4.10;99.90;;;;;;5056461;28;20454;-78
2022/02/01 06:55:44;;;;;;;5.53;2.40;;;4.10;99.90;;;;;;5056338;28;20409;-78
2022/02/01 06:58:15;;;;;;;5.30;2.00;;;4.20;99.90;;;;;;5056451;28;20444;-78
2022/02/01 07:00:42;;;;;;;12.87;3.73;;;4.10;99.90;;;;;;5056501;28;20429;-78
2022/02/01 07:03:08;;;;;;;10.37;3.20;;;4.20;99.90;;;;;;5056304;28;20982;-78
2022/02/01 07:05:34;;;;;;;6.67;2.93;;;4.10;99.90;;;;;;5056150;28;20421;-78
2022/02/01 07:07:59;;;;;;;5.63;2.90;;;4.20;99.90;;;;;;5055935;28;20467;-78
2022/02/01 07:10:25;;;;;;;9.60;2.90;;;4.20;99.90;;;;;;5055742;28;20432;-78
2022/02/01 07:12:51;;;;;;;8.53;2.77;;;4.30;99.90;;;;;;5055691;28;20567;-78
2022/02/01 07:15:17;;;;;;;9.67;3.30;;;4.30;99.90;;;;;;5055786;28;20185;-78
2022/02/01 07:17:49;;;;;;;11.70;2.70;;;4.30;99.90;;;;;;5055950;28;20634;-79
2022/02/01 07:20:16;;;;;;;7.90;3.00;;;4.30;99.90;;;;;;5055712;28;20274;-78
2022/02/01 07:22:44;;;;;;;8.03;3.00;;;4.30;99.90;;;;;;5055474;28;20443;-79
2022/02/01 07:25:16;;;;;;;7.87;3.17;;;4.40;99.90;;;;;;5055645;28;20472;-78
2022/02/01 07:27:47;;;;;;;7.90;3.40;;;4.40;99.90;;;;;;5055322;28;20417;-78
2022/02/01 07:30:18;;;;;;;16.30;3.10;;;4.50;99.90;;;;;;5055534;28;20520;-78
2022/02/01 07:32:44;;;;;;;7.93;2.80;;;4.50;99.90;;;;;;5055766;28;20441;-78
2022/02/01 07:35:11;;;;;;;9.33;3.00;;;4.50;99.90;;;;;;5055429;28;20443;-79
2022/02/01 07:37:37;;;;;;;9.80;3.33;;;4.50;99.90;;;;;;5054925;28;20421;-78
2022/02/01 07:40:08;;;;;;;9.67;3.23;;;4.50;99.90;;;;;;5055141;28;20884;-78
2022/02/01 07:42:35;;;;;;;9.93;3.23;;;4.60;99.90;;;;;;5054844;28;20438;-78
2022/02/01 07:45:03;;;;;;;10.87;3.63;;;4.50;99.90;;;;;;5054866;28;20430;-78
2022/02/01 07:47:28;;;;;;;8.03;4.50;;;4.60;99.90;;;;;;5054971;28;20428;-78
2022/02/01 07:49:54;;;;;;;5.47;3.40;;;4.60;99.90;;;;;;5054896;28;20419;-78
2022/02/01 07:52:20;;;;;;;15.30;4.17;;;4.60;99.90;;;;;;5055162;28;20920;-79
2022/02/01 07:54:47;;;;;;;8.47;3.37;;;4.60;99.90;;;;;;5054633;28;20419;-79
2022/02/01 07:57:13;;;;;;;9.00;4.33;;;4.70;99.90;;;;;;5054726;28;20512;-79
2022/02/01 07:59:39;;;;;;;8.40;4.77;;;4.70;99.90;;;;;;5054633;28;20499;-80
2022/02/01 08:02:05;;;;;;;6.80;4.67;;;4.70;99.90;;;;;;5054198;28;20433;-78
2022/02/01 08:04:35;;;;;;;7.87;4.40;;;4.80;99.90;;;;;;5054012;28;20823;-80
2022/02/01 08:07:03;;;;;;;11.07;4.20;;;4.80;99.90;;;;;;5053985;28;20429;-78
2022/02/01 08:09:36;;;;;;;11.50;4.77;;;4.80;99.90;;;;;;5053975;28;20475;-78
2022/02/01 08:12:09;;;;;;;10.40;4.87;;;4.80;99.90;;;;;;5054060;28;20428;-78
2022/02/01 08:17:31;;;;;;;9.90;5.63;;;4.70;99.90;;;;;;5072225;28;20420;-78
2022/02/01 08:20:02;;;;;;;18.53;7.20;;;4.70;99.90;;;;;;5054021;28;20421;-79
2022/02/01 08:22:49;;;;;;;12.53;5.43;;;4.70;99.90;;;;;;5053996;28;20453;-78
2022/02/01 08:25:16;;;;;;;9.60;5.60;;;4.60;99.90;;;;;;5053681;28;20545;-78
2022/02/01 08:27:43;;;;;;;14.47;5.47;;;4.60;99.90;;;;;;5053762;28;20421;-78
2022/02/01 08:30:11;;;;;;;14.63;6.07;;;4.60;99.90;;;;;;5053799;28;20417;-78
2022/02/01 08:32:38;;;;;;;17.63;6.93;;;4.70;99.90;;;;;;5055976;28;20469;-79
2022/02/01 08:35:05;;;;;;;12.20;6.60;;;4.60;99.90;;;;;;5057556;28;20553;-78
2022/02/01 08:37:32;;;;;;;10.53;6.07;;;4.60;99.90;;;;;;5057631;28;20409;-78
2022/02/01 08:39:59;;;;;;;21.13;7.50;;;4.50;99.90;;;;;;5057679;28;20512;-78
2022/02/01 08:42:25;;;;;;;15.20;6.70;;;4.50;99.90;;;;;;5057750;28;20861;-78
2022/02/01 08:44:52;;;;;;;11.23;6.20;;;4.60;99.90;;;;;;5057560;28;20563;-78
2022/02/01 08:47:19;;;;;;;14.67;7.47;;;4.60;99.90;;;;;;5057529;28;20864;-78
2022/02/01 08:49:48;;;;;;;14.20;7.23;;;4.70;99.90;;;;;;5057458;28;20983;-79
2022/02/01 08:52:24;;;;;;;15.13;7.50;;;4.60;99.90;;;;;;5057702;28;20818;-79
2022/02/01 08:54:52;;;;;;;18.03;7.97;;;4.60;99.90;;;;;;5057569;28;20432;-78
2022/02/01 08:57:25;;;;;;;12.03;8.50;;;4.60;99.90;;;;;;5057198;28;20516;-78
2022/02/01 08:59:53;;;;;;;17.03;8.20;;;4.60;99.90;;;;;;5057542;28;20436;-78
2022/02/01 09:02:27;;;;;;;15.57;7.70;;;4.60;99.90;;;;;;5057360;28;20438;-78
2022/02/01 09:04:57;;;;;;;16.20;7.53;;;4.60;99.90;;;;;;5057520;28;20932;-78
2022/02/01 09:07:24;;;;;;;15.60;8.93;;;4.60;99.90;;;;;;5056898;28;20422;-78
2022/02/01 09:09:50;;;;;;;13.10;7.87;;;4.70;99.90;;;;;;5056873;28;20543;-78
2022/02/01 09:12:17;;;;;;;13.97;8.80;;;4.80;99.90;;;;;;5056844;28;20444;-79
2022/02/01 09:14:46;;;;;;;13.77;7.20;;;4.80;99.90;;;;;;5057029;28;20798;-77
2022/02/01 09:17:14;;;;;;;19.97;9.37;;;4.80;99.90;;;;;;5056541;28;20417;-78
2022/02/01 09:19:44;;;;;;;14.20;8.13;;;4.80;99.90;;;;;;5056738;28;20428;-77
2022/02/01 09:22:11;;;;;;;13.23;7.47;;;4.80;99.90;;;;;;5056810;28;20431;-77
2022/02/01 09:24:38;;;;;;;11.93;8.40;;;4.90;99.90;;;;;;5056630;28;20976;-78
2022/02/01 09:27:04;;;;;;;17.20;7.80;;;5.00;99.90;;;;;;5056386;28;20450;-78
2022/02/01 09:29:30;;;;;;;9.53;7.50;;;5.10;99.90;;;;;;5056633;28;20999;-78
2022/02/01 09:31:56;;;;;;;10.10;7.83;;;5.10;99.90;;;;;;5056128;28;20453;-78
2022/02/01 09:34:23;;;;;;;17.07;8.30;;;5.00;99.90;;;;;;5040484;28;20210;-78
2022/02/01 09:36:51;;;;;;;12.33;8.27;;;5.00;99.90;;;;;;5056192;28;20421;-77
2022/02/01 09:39:18;;;;;;;11.13;7.60;;;5.00;99.90;;;;;;5056541;28;20430;-78
2022/02/01 09:41:44;;;;;;;13.73;7.93;;;5.10;99.90;;;;;;5056282;28;20482;-78
2022/02/01 09:44:10;;;;;;;9.90;6.93;;;5.10;99.90;;;;;;5055210;28;20442;-78
2022/02/01 09:46:36;;;;;;;11.20;6.63;;;5.20;99.90;;;;;;5056015;28;20421;-78
2022/02/01 09:49:03;;;;;;;9.07;6.40;;;5.20;99.90;;;;;;5056279;28;20461;-78
2022/02/01 09:51:29;;;;;;;11.17;6.20;;;5.20;99.90;;;;;;5056192;28;20232;-78
2022/02/01 09:53:55;;;;;;;11.77;6.20;;;5.20;99.90;;;;;;5056407;28;20844;-78
2022/02/01 09:56:20;;;;;;;10.60;7.67;;;5.20;99.90;;;;;;5056422;28;20591;-79
2022/02/01 09:58:55;;;;;;;9.40;5.60;;;5.20;99.90;;;;;;5056596;28;20190;-78
2022/02/01 10:01:28;;;;;;;12.07;6.23;;;5.30;99.90;;;;;;5056055;28;20203;-78
2022/02/01 10:04:07;;;;;;;9.70;5.57;;;5.40;99.90;;;;;;5056147;28;20832;-77
2022/02/01 10:06:37;;;;;;;7.60;5.60;;;5.40;99.90;;;;;;5055719;28;20418;-77
2022/02/01 10:09:06;;;;;;;11.83;6.40;;;5.30;99.90;;;;;;5056131;28;20548;-77
2022/02/01 10:11:43;;;;;;;10.07;5.27;;;5.40;99.90;;;;;;5056104;28;20421;-78
2022/02/01 10:14:14;;;;;;;8.17;4.83;;;5.50;99.90;;;;;;5056555;28;20437;-78
2022/02/01 10:16:46;;;;;;;9.57;4.97;;;5.60;99.90;;;;;;5056149;28;20455;-78
2022/02/01 10:19:13;;;;;;;7.20;5.20;;;5.70;99.90;;;;;;5056364;28;20806;-79
2022/02/01 10:21:56;;;;;;;7.67;4.50;;;5.80;99.90;;;;;;5055936;28;20418;-77
2022/02/01 10:24:34;;;;;;;7.00;4.30;;;5.80;99.90;;;;;;5056165;28;20460;-78
2022/02/01 10:27:15;;;;;;;9.03;4.07;;;5.70;99.90;;;;;;5055805;28;20793;-78
2022/02/01 10:30:13;;;;;;;7.50;4.40;;;5.70;99.90;;;;;;5055962;28;20877;-78
2022/02/01 10:35:31;;;;;;;8.27;4.40;;;5.70;99.90;;;;;;5074286;28;20551;-78
2022/02/01 10:38:03;;;;;;;5.80;4.10;;;5.80;99.90;;;;;;5055692;28;20567;-78
2022/02/01 10:40:42;;;;;;;7.47;3.50;;;5.80;99.90;;;;;;5056269;28;20451;-78
2022/02/01 10:43:26;;;;;;;4.70;3.20;;;5.90;99.90;;;;;;5056453;28;20585;-78
2022/02/01 10:45:55;;;;;;;7.10;3.30;;;5.80;99.90;;;;;;5055795;28;20928;-78
2022/02/01 10:48:25;;;;;;;4.70;3.47;;;5.80;99.90;;;;;;5055837;28;20459;-78
2022/02/01 10:51:01;;;;;;;5.00;2.97;;;5.90;99.90;;;;;;5055637;28;20413;-78
2022/02/01 10:53:27;;;;;;;8.13;3.50;;;5.90;99.90;;;;;;5055262;28;20459;-79
2022/02/01 10:55:54;;;;;;;8.33;3.50;;;5.90;99.90;;;;;;5054602;28;20559;-79
2022/02/01 10:58:20;;;;;;;5.63;3.30;;;5.90;99.90;;;;;;5054774;28;20188;-78
2022/02/01 11:00:47;;;;;;;6.87;3.00;;;5.90;99.90;;;;;;5054839;28;20916;-79
2022/02/01 11:03:15;;;;;;;4.40;2.80;;;6.00;99.90;;;;;;5054861;28;20214;-79
2022/02/01 11:05:51;;;;;;;6.23;2.77;;;6.00;99.90;;;;;;5054809;28;20469;-79
2022/02/01 11:08:22;;;;;;;5.00;2.40;;;6.00;99.90;;;;;;5054550;28;20461;-79
2022/02/01 11:10:52;;;;;;;5.43;2.77;;;6.10;99.90;;;;;;5054671;28;20503;-79
2022/02/01 11:13:18;;;;;;;8.83;3.40;;;6.20;99.90;;;;;;5055096;28;20485;-78
2022/02/01 11:16:05;;;;;;;5.80;2.80;;;6.20;99.90;;;;;;5062432;28;20436;-79
2022/02/01 11:18:31;;;;;;;8.00;2.80;;;6.20;99.90;;;;;;5054715;28;20559;-78
2022/02/01 11:21:04;;;;;;;5.23;2.93;;;6.20;99.90;;;;;;5054911;28;20744;-79
2022/02/01 11:23:57;;;;;;;4.63;2.57;;;6.30;99.90;;;;;;5054590;28;20963;-79
2022/02/01 11:26:38;;;;;;;3.50;2.63;;;6.30;99.90;;;;;;5054576;28;20574;-79
2022/02/01 11:31:47;;;;;;;4.00;2.73;;;6.40;99.90;;;;;;5073106;28;20423;-79
2022/02/01 11:34:29;;;;;;;3.30;2.30;;;6.40;99.90;;;;;;5054982;28;20439;-78
2022/02/01 11:37:10;;;;;;;4.77;2.77;;;6.50;99.90;;;;;;5054326;28;20785;-78
2022/02/01 11:39:54;;;;;;;4.23;2.70;;;6.50;99.90;;;;;;5054902;28;20482;-79
2022/02/01 11:42:29;;;;;;;5.00;3.13;;;6.50;99.90;;;;;;5054497;28;20484;-79
2022/02/01 11:45:06;;;;;;;4.63;2.97;;;6.50;99.90;;;;;;5054599;28;20794;-78
2022/02/01 11:47:37;;;;;;;6.27;2.93;;;6.50;99.90;;;;;;5054192;28;20443;-79
2022/02/01 11:50:13;;;;;;;5.10;2.83;;;6.60;99.90;;;;;;5054825;28;20863;-78
2022/02/01 11:52:44;;;;;;;4.50;2.77;;;6.60;99.90;;;;;;5054474;28;20489;-79
2022/02/01 11:55:13;;;;;;;4.87;2.97;;;6.60;99.90;;;;;;5054891;28;20419;-79
2022/02/01 11:57:46;;;;;;;4.47;3.37;;;6.60;99.90;;;;;;5054227;28;20416;-78
2022/02/01 12:00:25;;;;;;;5.70;3.07;;;6.70;99.90;;;;;;5055007;28;20478;-79
2022/02/01 12:03:00;;;;;;;4.50;2.80;;;6.60;99.90;;;;;;5054906;28;20432;-79
2022/02/01 12:05:34;;;;;;;4.83;2.70;;;6.50;99.90;;;;;;5054924;28;20417;-78
2022/02/01 12:08:05;;;;;;;4.00;2.50;;;6.60;99.90;;;;;;5053733;28;20530;-79
2022/02/01 12:10:41;;;;;;;5.00;2.90;;;6.60;99.90;;;;;;5054500;28;20444;-78
2022/02/01 12:13:09;;;;;;;4.23;2.37;;;6.70;99.90;;;;;;5054203;28;20580;-79
2022/02/01 12:15:40;;;;;;;4.57;3.00;;;6.70;99.90;;;;;;5054899;28;20472;-78
2022/02/01 12:18:26;;;;;;;3.63;2.43;;;6.70;99.90;;;;;;5053674;28;20428;-78
2022/02/01 12:21:11;;;;;;;5.17;2.50;;;6.70;99.90;;;;;;5053882;28;20436;-78
2022/02/01 12:26:36;;;;;;;3.80;2.60;;;6.80;99.90;;;;;;5033021;28;20597;-79
2022/02/01 12:29:07;;;;;;;3.50;1.97;;;6.80;99.90;;;;;;5026412;28;20461;-79
2022/02/01 12:31:37;;;;;;;3.93;3.40;;;6.80;99.90;;;;;;5033873;28;20414;-80
2022/02/01 12:34:04;;;;;;;3.90;2.37;;;6.80;99.90;;;;;;5033424;28;20533;-79
2022/02/01 12:36:38;;;;;;;4.03;2.20;;;6.80;99.90;;;;;;5033597;28;20897;-80
2022/02/01 12:39:13;;;;;;;3.47;2.27;;;6.80;99.90;;;;;;5033206;28;20549;-79
2022/02/01 12:47:24;;;;;;;3.87;2.30;;;6.90;99.90;;;;;;5034691;28;20502;-79
2022/02/01 12:49:52;;;;;;;3.33;2.27;;;7.00;99.90;;;;;;5033855;28;20471;-80
2022/02/01 12:52:31;;;;;;;3.87;2.30;;;7.00;99.90;;;;;;5033363;28;20473;-78
2022/02/01 12:55:10;;;;;;;5.07;2.37;;;7.00;99.90;;;;;;5033763;28;20433;-79
2022/02/01 12:57:37;;;;;;;3.20;2.20;;;6.90;99.90;;;;;;5033713;28;20505;-80
2022/02/01 13:00:14;;;;;;;3.27;1.90;;;7.00;99.90;;;;;;5033041;28;20424;-78
2022/02/01 13:02:40;;;;;;;3.97;2.43;;;6.90;99.90;;;;;;5033171;28;20800;-78
2022/02/01 13:05:16;;;;;;;3.93;1.70;;;6.90;99.90;;;;;;5033342;28;20884;-79
2022/02/01 13:08:11;;;;;;;2.90;1.83;;;7.00;99.90;;;;;;5032809;28;20422;-80
2022/02/01 13:21:05;;;;;;;2.70;1.70;;;7.10;99.90;;;;;;5039211;28;20422;-79
2022/02/01 13:23:43;;;;;;;3.03;1.90;;;7.10;99.90;;;;;;5036456;28;20451;-79
2022/02/01 13:26:13;;;;;;;4.17;2.30;;;7.10;99.90;;;;;;5037530;28;20442;-79
2022/02/01 13:28:40;;;;;;;3.50;1.70;;;7.10;99.90;;;;;;5036355;28;20469;-78
2022/02/01 13:31:20;;;;;;;2.80;1.63;;;7.20;99.90;;;;;;5037077;28;20461;-79
2022/02/01 13:33:46;;;;;;;2.60;1.67;;;7.30;99.90;;;;;;5036488;28;20450;-79
2022/02/01 13:36:13;;;;;;;3.20;1.80;;;7.30;99.90;;;;;;5036670;28;20415;-78
2022/02/01 13:38:53;;;;;;;2.70;1.60;;;7.20;99.90;;;;;;5036614;28;20425;-79
2022/02/01 13:41:25;;;;;;;3.60;1.73;;;7.30;99.90;;;;;;5036632;28;20802;-79
2022/02/01 13:43:56;;;;;;;2.97;1.80;;;7.30;99.90;;;;;;5036668;28;20447;-78
2022/02/01 13:46:30;;;;;;;3.67;2.30;;;7.40;99.90;;;;;;5036366;28;20800;-79
2022/02/01 13:49:01;;;;;;;4.50;3.10;;;7.40;99.90;;;;;;5036568;28;20498;-80
2022/02/01 13:51:27;;;;;;;3.30;2.10;;;7.30;99.90;;;;;;5036926;28;20510;-78
2022/02/01 13:54:00;;;;;;;4.70;2.93;;;7.40;99.90;;;;;;5036405;28;20446;-79
2022/02/01 13:56:29;;;;;;;5.07;2.77;;;7.30;99.90;;;;;;5036691;28;20423;-80
2022/02/01 13:59:07;;;;;;;4.10;2.60;;;7.40;99.90;;;;;;5036661;28;20767;-80
2022/02/01 14:01:33;;;;;;;4.43;2.67;;;7.40;99.90;;;;;;5036054;28;20476;-80
2022/02/01 14:04:12;;;;;;;5.63;3.07;;;7.40;99.90;;;;;;5036020;28;20864;-79
2022/02/01 14:06:48;;;;;;;4.00;2.30;;;7.40;99.90;;;;;;5035552;28;20184;-80
2022/02/01 14:12:09;;;;;;;3.80;2.70;;;7.50;99.90;;;;;;5037301;28;20503;-79
2022/02/01 14:36:31;;;;;;;7.63;4.20;;;7.60;99.90;;;;;;4956273;29;20962;-79
2022/02/01 14:42:50;;;;;;;8.50;4.90;;;7.50;99.90;;;;;;5020188;28;20850;-79
2022/02/01 14:44:46;;;;;;;6.27;3.80;;;7.70;99.90;;;;;;5036881;28;20496;-79
2022/02/01 14:47:22;;;;;;;5.80;3.87;;;7.60;99.90;;;;;;5034944;28;20423;-79
2022/02/01 14:49:49;;;;;;;5.37;3.60;;;7.60;99.90;;;;;;5034799;28;20462;-78
2022/02/01 14:52:17;;;;;;;6.73;4.20;;;7.60;99.90;;;;;;5034235;28;20435;-78
2022/02/01 14:54:46;;;;;;;7.13;4.77;;;7.60;99.90;;;;;;5034568;28;20738;-79
2022/02/01 15:13:23;;;;;;;9.73;6.23;;;7.70;99.90;;;;;;5035483;28;20446;-78
2022/02/01 15:15:49;;;;;;;14.50;8.83;;;7.70;99.90;;;;;;5033475;28;20411;-79
2022/02/01 15:18:15;;;;;;;15.00;8.90;;;7.70;99.90;;;;;;5033821;28;20418;-78
2022/02/01 15:20:41;;;;;;;17.13;9.57;;;7.70;99.90;;;;;;5033511;28;20415;-78
2022/02/01 15:23:07;;;;;;;14.20;8.67;;;7.80;99.90;;;;;;5033039;28;20439;-80
2022/02/01 15:25:33;;;;;;;17.33;9.70;;;7.80;99.90;;;;;;5033390;28;20200;-78
2022/02/01 15:27:58;;;;;;;21.80;10.90;;;7.90;99.90;;;;;;5033146;28;20184;-78
2022/02/01 15:30:24;;;;;;;18.93;11.03;;;7.90;99.90;;;;;;5033464;28;20482;-78
2022/02/01 15:32:51;;;;;;;17.43;10.63;;;7.90;99.90;;;;;;5033317;28;20196;-78